Time;durP1;ratioP1;P1;durP2;ratioP2;P2;SDS_P1;SDS_P2;PMS_P1;PMS_P2;Temp;Humidity;BMP_temperature;BMP_pressure;BME280_temperature;BME280_humidity;BME280_pressure;Samples;Min_cycle;Max_cycle;Signal;HPM_P1;HPM_P2
2022/01/01 00:07:39;;;;;;;277.40;190.02;;;;;;;10.14;100.00;102301.97;10491539;28;20048;-74
2022/01/01 00:12:49;;;;;;;175.98;103.20;;;;;;;10.24;100.00;102297.28;10539807;28;20028;-74
2022/01/01 00:18:18;;;;;;;164.30;105.30;;;;;;;10.29;100.00;102292.28;10521613;28;20468;-74
2022/01/01 00:23:21;;;;;;;152.95;95.82;;;;;;;10.43;100.00;102288.13;10526126;28;20102;-73
2022/01/01 00:28:22;;;;;;;291.30;166.38;;;;;;;10.51;100.00;102290.88;10505333;28;20032;-74
2022/01/01 00:33:22;;;;;;;169.77;109.50;;;;;;;10.55;100.00;102300.34;10540685;28;20036;-73
2022/01/01 00:38:23;;;;;;;186.60;100.57;;;;;;;10.47;100.00;102287.66;10539240;28;20020;-73
2022/01/01 00:43:26;;;;;;;163.65;82.72;;;;;;;10.31;100.00;102279.44;10505451;28;20024;-73
2022/01/01 00:48:27;;;;;;;250.02;108.80;;;;;;;10.20;100.00;102279.69;10547939;28;20068;-73
2022/01/01 00:53:27;;;;;;;128.60;66.57;;;;;;;10.14;100.00;102296.56;10546752;28;20065;-74
2022/01/01 00:58:27;;;;;;;183.55;93.38;;;;;;;10.15;100.00;102309.97;10548064;28;20135;-73
2022/01/01 01:03:28;;;;;;;205.13;109.05;;;;;;;10.41;100.00;102309.13;10462253;28;20048;-74
2022/01/01 01:08:30;;;;;;;146.43;71.78;;;;;;;10.50;100.00;102324.41;10546086;28;20487;-73
2022/01/01 01:13:32;;;;;;;99.28;47.42;;;;;;;10.61;100.00;102312.41;10546851;28;20085;-73
2022/01/01 01:18:32;;;;;;;176.43;65.75;;;;;;;10.67;100.00;102309.06;10545539;28;20384;-73
2022/01/01 01:23:33;;;;;;;167.80;63.03;;;;;;;10.76;100.00;102310.78;10547013;28;20039;-73
2022/01/01 01:28:33;;;;;;;122.95;49.17;;;;;;;10.88;100.00;102319.44;10546695;28;20024;-73
2022/01/01 01:33:33;;;;;;;214.35;71.40;;;;;;;10.97;100.00;102328.44;10545481;28;20040;-73
2022/01/01 01:38:36;;;;;;;250.93;90.82;;;;;;;11.10;100.00;102310.72;10527298;28;20032;-73
2022/01/01 01:43:36;;;;;;;254.88;84.60;;;;;;;11.11;100.00;102315.09;10545619;28;20031;-73
2022/01/01 01:48:37;;;;;;;252.65;93.38;;;;;;;11.16;100.00;102317.31;10545430;28;20032;-73
2022/01/01 01:53:38;;;;;;;302.40;107.53;;;;;;;11.30;100.00;102310.41;10527870;28;20119;-74
2022/01/01 01:58:38;;;;;;;378.75;134.68;;;;;;;11.36;100.00;102307.84;10466665;28;20052;-73
2022/01/01 02:03:38;;;;;;;178.10;57.00;;;;;;;11.46;100.00;102306.84;10484932;28;20076;-73
2022/01/01 02:08:39;;;;;;;120.47;45.53;;;;;;;11.51;100.00;102301.75;10467335;28;20040;-73
2022/01/01 02:14:00;;;;;;;171.15;55.70;;;;;;;11.58;100.00;102283.78;10485167;28;20063;-73
2022/01/01 02:19:00;;;;;;;75.20;24.70;;;;;;;11.60;100.00;102293.44;10501282;28;20383;-73
2022/01/01 02:24:02;;;;;;;29.20;15.18;;;;;;;11.59;100.00;102288.19;10501347;28;20079;-73
2022/01/01 02:29:03;;;;;;;50.22;23.63;;;;;;;11.58;100.00;102289.19;10466607;28;20396;-74
2022/01/01 02:34:04;;;;;;;115.53;42.38;;;;;;;11.63;100.00;102305.81;10483178;28;20471;-73
2022/01/01 02:39:12;;;;;;;40.17;22.90;;;;;;;11.62;100.00;102296.84;10483438;28;20033;-73
2022/01/01 02:44:13;;;;;;;89.00;35.53;;;;;;;11.61;100.00;102306.00;10465995;28;20029;-74
2022/01/01 02:49:13;;;;;;;63.33;30.58;;;;;;;11.66;100.00;102315.50;10482608;28;20396;-73
2022/01/01 02:54:14;;;;;;;52.85;25.13;;;;;;;11.69;100.00;102318.72;10481734;28;20068;-74
2022/01/01 02:59:14;;;;;;;69.05;29.25;;;;;;;11.67;100.00;102307.16;10482236;28;20025;-74
2022/01/01 03:04:14;;;;;;;55.22;24.05;;;;;;;11.61;100.00;102300.59;10499335;28;20494;-75
2022/01/01 03:09:15;;;;;;;57.35;30.00;;;;;;;11.60;100.00;102289.88;10480309;28;20032;-75
2022/01/01 03:14:17;;;;;;;68.85;28.33;;;;;;;11.44;100.00;102282.59;10499308;28;20036;-74
2022/01/01 03:19:17;;;;;;;22.15;14.27;;;;;;;11.23;100.00;102266.84;10499170;28;20364;-74
2022/01/01 03:24:18;;;;;;;45.03;17.75;;;;;;;11.14;100.00;102282.25;10498960;28;20037;-75
2022/01/01 03:29:18;;;;;;;70.13;32.38;;;;;;;11.11;100.00;102285.28;10498734;28;20028;-74
2022/01/01 03:34:21;;;;;;;310.60;116.32;;;;;;;11.11;100.00;102279.03;10498539;28;20506;-74
2022/01/01 03:39:22;;;;;;;92.78;36.58;;;;;;;11.00;100.00;102295.59;10498341;28;20036;-75
2022/01/01 03:44:22;;;;;;;84.72;34.13;;;;;;;10.98;100.00;102278.66;10481035;28;20082;-74
2022/01/01 03:49:23;;;;;;;41.35;20.48;;;;;;;10.98;100.00;102284.09;10498668;28;20098;-75
2022/01/01 03:54:23;;;;;;;71.05;29.35;;;;;;;11.15;100.00;102277.66;10484339;28;20055;-74
2022/01/01 03:59:26;;;;;;;64.30;28.27;;;;;;;11.16;100.00;102282.91;10541382;28;20403;-74
2022/01/01 04:04:27;;;;;;;77.78;32.28;;;;;;;11.16;100.00;102295.63;10522664;28;20093;-74
2022/01/01 04:09:27;;;;;;;59.40;25.92;;;;;;;11.27;100.00;102306.16;10540894;28;20081;-74
2022/01/01 04:14:27;;;;;;;81.20;31.90;;;;;;;11.36;100.00;102290.75;10539586;28;20479;-75
2022/01/01 04:19:39;;;;;;;59.60;27.50;;;;;;;11.36;100.00;102282.59;10543013;28;20032;-74
2022/01/01 04:24:39;;;;;;;86.00;33.92;;;;;;;11.15;100.00;102289.34;10533065;28;20122;-75
2022/01/01 04:29:41;;;;;;;139.13;47.83;;;;;;;11.07;100.00;102296.63;10548665;28;20054;-74
2022/01/01 04:34:41;;;;;;;154.88;59.03;;;;;;;11.21;100.00;102311.41;10547196;28;20434;-74
2022/01/01 04:39:41;;;;;;;33.72;17.73;;;;;;;11.21;100.00;102314.97;10547988;28;20028;-75
2022/01/01 04:44:42;;;;;;;35.55;16.77;;;;;;;11.31;100.00;102317.50;10516876;28;20111;-75
2022/01/01 04:49:42;;;;;;;64.40;27.23;;;;;;;11.34;100.00;102311.75;10552114;28;20047;-75
2022/01/01 04:54:44;;;;;;;35.17;19.05;;;;;;;11.36;100.00;102307.84;10546634;28;20052;-75
2022/01/01 04:59:44;;;;;;;29.90;13.20;;;;;;;11.37;100.00;102301.41;10529371;28;20030;-75
2022/01/01 05:04:45;;;;;;;20.95;11.15;;;;;;;11.33;100.00;102291.94;10547357;28;20041;-75
2022/01/01 05:09:45;;;;;;;27.05;11.68;;;;;;;11.33;100.00;102297.34;10546315;28;20039;-75
2022/01/01 05:14:45;;;;;;;37.05;14.00;;;;;;;11.29;100.00;102285.13;10546603;28;20036;-75
2022/01/01 05:19:46;;;;;;;20.67;11.50;;;;;;;11.07;100.00;102288.47;10545026;28;20033;-74
2022/01/01 05:24:46;;;;;;;26.75;11.48;;;;;;;11.14;100.00;102284.94;10526672;28;20031;-75
2022/01/01 05:29:47;;;;;;;22.80;11.80;;;;;;;11.37;100.00;102274.28;10526067;28;20039;-75
2022/01/01 05:34:47;;;;;;;15.68;10.88;;;;;;;11.47;100.00;102259.72;10544856;28;20472;-75
2022/01/01 05:39:48;;;;;;;17.25;10.75;;;;;;;11.34;100.00;102271.91;10546200;28;20032;-75
2022/01/01 05:44:48;;;;;;;33.30;10.73;;;;;;;11.21;100.00;102279.72;10525948;28;20043;-74
2022/01/01 05:49:48;;;;;;;20.20;10.88;;;;;;;11.29;100.00;102281.56;10527339;28;20036;-75
2022/01/01 05:54:50;;;;;;;18.48;10.90;;;;;;;11.39;100.00;102285.81;10526104;28;20096;-75
2022/01/01 05:59:50;;;;;;;19.38;9.93;;;;;;;11.53;100.00;102292.44;10525684;28;20483;-75
2022/01/01 06:04:51;;;;;;;23.30;10.02;;;;;;;11.59;100.00;102304.47;10525827;28;20043;-74
2022/01/01 06:09:51;;;;;;;11.57;8.38;;;;;;;11.54;100.00;102293.28;10544519;28;20039;-74
2022/01/01 06:14:52;;;;;;;21.25;8.70;;;;;;;11.58;100.00;102300.91;10544439;28;20043;-75
2022/01/01 06:19:52;;;;;;;19.27;9.48;;;;;;;11.56;100.00;102283.13;10542970;28;20024;-75
2022/01/01 06:24:52;;;;;;;15.60;7.40;;;;;;;11.43;100.00;102278.19;10542917;28;20040;-74
2022/01/01 06:29:53;;;;;;;13.77;7.68;;;;;;;11.57;100.00;102299.19;10542632;28;20036;-75
2022/01/01 06:34:53;;;;;;;10.68;8.32;;;;;;;11.54;100.00;102294.13;10523796;28;20399;-75
2022/01/01 06:39:54;;;;;;;14.95;7.30;;;;;;;11.39;100.00;102299.38;10524763;28;20032;-74
2022/01/01 06:44:54;;;;;;;14.90;7.88;;;;;;;11.48;100.00;102293.94;10542237;28;20165;-75
2022/01/01 06:49:54;;;;;;;13.63;8.40;;;;;;;11.46;100.00;102294.13;10542672;28;20250;-75
2022/01/01 06:54:55;;;;;;;14.82;9.55;;;;;;;11.46;100.00;102285.16;10542516;28;20057;-75
2022/01/01 06:59:55;;;;;;;8.90;6.75;;;;;;;11.41;100.00;102288.34;10546101;28;20035;-75
2022/01/01 07:04:56;;;;;;;9.35;7.65;;;;;;;11.49;100.00;102282.09;10546302;28;20449;-75
2022/01/01 07:09:56;;;;;;;18.48;6.70;;;;;;;11.54;100.00;102277.84;10543432;28;20040;-75
2022/01/01 07:14:56;;;;;;;14.93;10.05;;;;;;;11.52;100.00;102290.75;10540768;28;20031;-75
2022/01/01 07:19:57;;;;;;;16.73;9.25;;;;;;;11.60;100.00;102295.31;10541407;28;20159;-75
2022/01/01 07:24:57;;;;;;;12.60;7.97;;;;;;;11.68;100.00;102308.00;10541666;28;20032;-75
2022/01/01 07:29:57;;;;;;;18.60;8.13;;;;;;;11.76;100.00;102306.16;10523255;28;20592;-75
2022/01/01 07:34:58;;;;;;;12.30;7.95;;;;;;;11.71;100.00;102313.97;10540009;28;20036;-75
2022/01/01 07:39:58;;;;;;;13.38;8.15;;;;;;;11.75;100.00;102311.75;10522519;28;20035;-74
2022/01/01 07:44:59;;;;;;;25.70;9.23;;;;;;;11.77;100.00;102318.72;10540608;28;20036;-75
2022/01/01 07:49:59;;;;;;;11.27;8.15;;;;;;;11.76;100.00;102316.16;10540868;28;20529;-74
2022/01/01 07:55:00;;;;;;;23.95;10.20;;;;;;;11.74;100.00;102297.34;10540501;28;20399;-75
2022/01/01 08:00:00;;;;;;;10.77;8.27;;;;;;;11.73;100.00;102311.06;10522022;28;20032;-75
2022/01/01 08:05:01;;;;;;;16.83;9.00;;;;;;;11.57;100.00;102320.91;10522603;28;20349;-75
2022/01/01 08:10:02;;;;;;;11.77;8.80;;;;;;;11.63;100.00;102325.66;10521754;28;20033;-75
2022/01/01 08:15:04;;;;;;;14.35;9.05;;;;;;;11.57;100.00;102329.03;10523350;28;20046;-74
2022/01/01 08:20:04;;;;;;;16.33;11.65;;;;;;;11.56;100.00;102326.53;10521638;28;20044;-75
2022/01/01 08:25:05;;;;;;;15.65;10.27;;;;;;;11.58;100.00;102328.06;10539786;28;20036;-75
2022/01/01 08:30:06;;;;;;;16.13;10.73;;;;;;;11.57;100.00;102320.91;10539377;28;20383;-74
2022/01/01 08:35:07;;;;;;;18.70;11.40;;;;;;;11.50;100.00;102308.19;10522792;28;20032;-75
2022/01/01 08:40:07;;;;;;;28.13;11.45;;;;;;;11.43;100.00;102309.91;10539895;28;20039;-75
2022/01/01 08:45:08;;;;;;;15.55;12.23;;;;;;;11.38;100.00;102292.25;10520998;28;20024;-74
2022/01/01 08:50:09;;;;;;;24.95;12.52;;;;;;;11.40;100.00;102282.09;10539644;28;20032;-74
2022/01/01 08:55:10;;;;;;;24.55;12.98;;;;;;;11.28;100.00;102288.00;10520566;28;20052;-75
2022/01/01 09:00:11;;;;;;;24.13;14.50;;;;;;;11.23;100.00;102269.56;10520136;28;20115;-75
2022/01/01 09:05:11;;;;;;;22.63;15.75;;;;;;;11.22;100.00;102275.97;10521894;28;20125;-74
2022/01/01 09:10:12;;;;;;;26.23;19.02;;;;;;;11.16;100.00;102265.78;10545426;28;20036;-74
2022/01/01 09:15:12;;;;;;;31.05;18.83;;;;;;;11.17;100.00;102265.63;10528050;28;20036;-75
2022/01/01 09:20:13;;;;;;;26.20;18.45;;;;;;;11.16;100.00;102247.66;10549734;28;20028;-75
2022/01/01 09:25:13;;;;;;;47.42;26.20;;;;;;;10.98;100.00;102236.13;10548473;28;20460;-75
2022/01/01 09:30:14;;;;;;;62.70;33.25;;;;;;;10.87;100.00;102229.16;10527724;28;20032;-75
2022/01/01 09:35:16;;;;;;;64.78;35.95;;;;;;;10.98;100.00;102229.88;10544237;28;20032;-74
2022/01/01 09:40:17;;;;;;;65.72;32.05;;;;;;;11.29;100.00;102238.16;10544852;28;20028;-75
2022/01/01 09:45:18;;;;;;;52.75;31.73;;;;;;;11.77;100.00;102239.16;10544765;28;20070;-74
2022/01/01 09:50:18;;;;;;;50.67;29.38;;;;;;;11.62;100.00;102241.72;10526493;28;20063;-74
2022/01/01 09:55:19;;;;;;;51.40;31.23;;;;;;;11.44;100.00;102227.50;10543708;28;20081;-74
2022/01/01 10:00:19;;;;;;;50.95;29.80;;;;;;;11.60;100.00;102232.91;10478938;28;20143;-74
2022/01/01 10:05:19;;;;;;;40.45;29.38;;;;;;;11.70;100.00;102230.84;10543008;28;20165;-75
2022/01/01 10:10:25;;;;;;;47.15;28.38;;;;;;;11.75;100.00;102244.75;10524806;28;20054;-76
2022/01/01 10:15:25;;;;;;;42.20;25.98;;;;;;;11.69;100.00;102240.03;10543576;28;20036;-76
2022/01/01 10:20:25;;;;;;;36.75;26.20;;;;;;;11.68;100.00;102242.88;10544026;28;20039;-75
2022/01/01 10:30:45;;;;;;;38.72;22.13;;;;;;;12.07;100.00;102238.44;10513344;28;20031;-74
2022/01/01 10:35:50;;;;;;;32.47;21.70;;;;;;;12.60;100.00;102225.09;10525460;28;20471;-73
2022/01/01 10:40:54;;;;;;;28.65;16.92;;;;;;;12.95;100.00;102220.13;10524934;28;20119;-74
2022/01/01 10:45:54;;;;;;;30.00;20.73;;;;;;;13.17;100.00;102234.75;10542071;28;20451;-74
2022/01/01 10:50:55;;;;;;;26.83;18.05;;;;;;;13.01;100.00;102222.13;10542089;28;20039;-74
2022/01/01 10:56:00;;;;;;;38.92;21.33;;;;;;;12.94;100.00;102208.41;10524438;28;20047;-74
2022/01/01 11:01:02;;;;;;;30.67;19.48;;;;;;;12.79;100.00;102204.78;10523156;28;20036;-73
2022/01/01 11:06:12;;;;;;;25.85;17.75;;;;;;;12.70;100.00;102204.00;10541604;28;20036;-73
2022/01/01 11:11:13;;;;;;;23.58;16.48;;;;;;;12.71;100.00;102193.97;10540731;28;20024;-73
2022/01/01 11:16:15;;;;;;;35.47;17.75;;;;;;;12.80;100.00;102174.72;10541614;28;20363;-75
2022/01/01 11:21:16;;;;;;;22.55;17.88;;;;;;;12.85;100.00;102165.16;10522128;28;20166;-75
2022/01/01 11:26:16;;;;;;;42.90;18.58;;;;;;;12.85;100.00;102179.59;10506579;28;20093;-74
2022/01/01 11:31:18;;;;;;;27.40;16.48;;;;;;;12.95;100.00;102160.31;10504834;28;20028;-75
2022/01/01 11:36:20;;;;;;;25.63;16.20;;;;;;;12.85;100.00;102163.28;10510497;28;20055;-75
2022/01/01 11:41:21;;;;;;;22.13;14.85;;;;;;;12.96;100.00;102167.47;10543588;28;20097;-75
2022/01/01 11:46:26;;;;;;;25.92;14.48;;;;;;;13.01;100.00;102181.34;10521578;28;20058;-76
2022/01/01 11:51:38;;;;;;;23.38;13.13;;;;;;;12.99;100.00;102172.53;10521869;28;20113;-76
2022/01/01 11:56:59;;;;;;;13.38;11.65;;;;;;;13.00;100.00;102168.78;10540671;28;20093;-75
2022/01/01 12:02:18;;;;;;;15.88;10.75;;;;;;;13.18;100.00;102149.44;10521858;28;20032;-74
2022/01/01 12:07:18;;;;;;;17.40;10.60;;;;;;;13.24;100.00;102135.97;10523936;28;20439;-75
2022/01/01 12:12:43;;;;;;;17.90;10.30;;;;;;;13.31;99.78;102125.19;10539728;28;20153;-75
2022/01/01 12:17:44;;;;;;;10.80;8.00;;;;;;;13.31;98.43;102105.31;10525354;28;20029;-73
2022/01/01 12:22:45;;;;;;;15.18;9.38;;;;;;;13.28;99.37;102108.41;10522781;28;20115;-74
2022/01/01 12:27:47;;;;;;;9.85;8.88;;;;;;;13.21;98.23;102100.09;10539854;28;20040;-73
2022/01/01 12:32:52;;;;;;;8.75;7.10;;;;;;;13.16;97.57;102094.38;10523135;28;20089;-74
2022/01/01 12:38:04;;;;;;;9.50;7.90;;;;;;;13.22;97.23;102108.06;10540322;28;20036;-74
2022/01/01 12:43:09;;;;;;;11.15;7.18;;;;;;;13.19;97.13;102100.28;10547749;28;20506;-75
2022/01/01 12:48:10;;;;;;;8.95;7.88;;;;;;;13.16;97.71;102097.09;10529818;28;20048;-76
2022/01/01 12:53:12;;;;;;;7.45;6.57;;;;;;;13.08;97.90;102092.59;10547630;28;20062;-76
2022/01/01 12:58:13;;;;;;;6.50;5.57;;;;;;;13.07;98.70;102098.19;10528720;28;20059;-76
2022/01/01 13:03:13;;;;;;;9.32;6.18;;;;;;;13.08;98.44;102100.75;10529019;28;20521;-76
2022/01/01 13:08:14;;;;;;;7.40;5.63;;;;;;;13.12;99.35;102104.78;10547060;28;20063;-76
2022/01/01 13:13:18;;;;;;;11.00;5.53;;;;;;;13.20;98.41;102077.47;10546999;28;20467;-76
2022/01/01 13:18:19;;;;;;;5.03;3.67;;;;;;;13.35;95.94;102073.97;10546854;28;20062;-76
2022/01/01 13:23:21;;;;;;;6.75;5.35;;;;;;;13.12;95.58;102063.97;10546795;28;20464;-75
2022/01/01 13:28:23;;;;;;;5.22;4.72;;;;;;;13.06;98.61;102053.84;10547050;28;20123;-75
2022/01/01 13:33:24;;;;;;;6.57;4.97;;;;;;;12.99;98.11;102053.75;10528178;28;20057;-77
2022/01/01 13:38:25;;;;;;;5.28;4.72;;;;;;;13.03;97.74;102048.78;10544884;28;20028;-73
2022/01/01 13:43:31;;;;;;;10.00;4.85;;;;;;;12.96;98.05;102047.84;10526810;28;20032;-74
2022/01/01 13:48:45;;;;;;;10.07;5.57;;;;;;;12.90;97.42;102056.72;10545182;28;20032;-74
2022/01/01 13:53:45;;;;;;;7.57;3.10;;;;;;;12.83;98.25;102050.31;10536512;28;20036;-74
2022/01/01 13:58:49;;;;;;;4.00;3.70;;;;;;;12.90;100.00;102063.00;10555167;28;20143;-74
2022/01/01 14:03:50;;;;;;;4.47;3.50;;;;;;;12.90;100.00;102062.16;10544375;28;20032;-74
2022/01/01 14:09:00;;;;;;;6.10;3.70;;;;;;;12.86;99.04;102064.41;10508894;28;20052;-74
2022/01/01 14:14:08;;;;;;;4.25;3.72;;;;;;;12.83;99.45;102059.34;10524755;28;20127;-74
2022/01/01 14:19:13;;;;;;;12.18;4.35;;;;;;;12.87;99.78;102065.25;10525717;28;20119;-77
2022/01/01 14:24:14;;;;;;;19.67;4.25;;;;;;;12.84;99.87;102060.19;10542776;28;20119;-74
2022/01/01 14:29:15;;;;;;;8.73;3.15;;;;;;;12.80;98.99;102059.72;10507871;28;20028;-74
2022/01/01 14:34:16;;;;;;;4.63;3.42;;;;;;;12.77;100.00;102065.50;10525377;28;20059;-75
2022/01/01 14:39:16;;;;;;;8.63;3.42;;;;;;;12.68;99.02;102053.84;10524342;28;20071;-74
2022/01/01 14:44:17;;;;;;;3.20;2.92;;;;;;;12.70;99.50;102057.25;10521851;28;20078;-75
2022/01/01 14:49:41;;;;;;;3.03;2.42;;;;;;;12.75;98.52;102059.41;10505087;28;20055;-75
2022/01/01 14:55:03;;;;;;;3.30;2.75;;;;;;;12.74;99.69;102055.84;10523263;28;20055;-74
2022/01/01 15:00:08;;;;;;;3.50;3.10;;;;;;;12.68;99.00;102031.28;10541321;28;20028;-74
2022/01/01 15:05:08;;;;;;;5.70;3.80;;;;;;;12.72;100.00;102035.31;10506721;28;20024;-75
2022/01/01 15:10:14;;;;;;;3.58;3.28;;;;;;;12.64;99.05;102033.53;10541174;28;20031;-73
2022/01/01 15:15:14;;;;;;;12.07;3.45;;;;;;;12.61;98.65;102014.88;10526880;28;20036;-75
2022/01/01 15:20:15;;;;;;;5.40;3.80;;;;;;;12.66;99.68;102026.00;10526704;28;20032;-76
2022/01/01 15:25:15;;;;;;;3.00;2.80;;;;;;;12.66;99.97;102003.44;10473508;28;20058;-75
2022/01/01 15:30:30;;;;;;;4.57;3.58;;;;;;;12.62;98.59;101988.53;10542876;28;20101;-74
2022/01/01 15:35:58;;;;;;;2.92;2.67;;;;;;;12.64;98.39;102006.34;10532468;28;20456;-74
2022/01/01 15:41:02;;;;;;;2.63;2.42;;;;;;;12.66;98.33;102001.56;10539826;28;20048;-75
2022/01/01 15:46:03;;;;;;;2.22;2.08;;;;;;;12.68;98.62;101993.22;10541368;28;20043;-74
2022/01/01 15:51:03;;;;;;;4.05;2.70;;;;;;;12.72;99.65;101989.09;10522113;28;20040;-74
2022/01/01 15:56:07;;;;;;;3.50;2.92;;;;;;;12.71;97.58;101969.25;10521508;28;20566;-74
2022/01/01 16:01:12;;;;;;;6.65;3.33;;;;;;;12.78;99.90;101967.47;10521545;28;20044;-75
2022/01/01 16:06:13;;;;;;;3.17;2.60;;;;;;;12.77;97.54;101963.06;10539878;28;20084;-75
2022/01/01 16:11:13;;;;;;;2.72;2.53;;;;;;;12.83;96.93;101958.75;10527106;28;20424;-74
2022/01/01 16:16:14;;;;;;;2.85;2.47;;;;;;;12.90;97.68;101967.00;10514313;28;20024;-75
2022/01/01 16:21:17;;;;;;;4.05;2.78;;;;;;;12.86;96.77;101962.97;10547692;28;20028;-74
2022/01/01 16:26:19;;;;;;;4.20;3.28;;;;;;;12.84;96.44;101948.72;10549038;28;20032;-74
2022/01/01 16:31:21;;;;;;;2.63;2.42;;;;;;;12.92;97.73;101937.75;10530477;28;20055;-74
2022/01/01 16:36:25;;;;;;;3.67;2.90;;;;;;;12.88;96.53;101936.44;10548332;28;20064;-75
2022/01/01 16:41:38;;;;;;;3.53;2.88;;;;;;;12.96;98.31;101933.63;10513569;28;20032;-74
2022/01/01 16:46:51;;;;;;;3.28;2.15;;;;;;;12.96;96.88;101936.38;10547198;28;20032;-75
2022/01/01 16:51:56;;;;;;;6.45;3.72;;;;;;;12.89;96.07;101944.44;10513707;28;20039;-75
2022/01/01 16:56:57;;;;;;;3.67;2.78;;;;;;;12.94;97.84;101943.84;10528359;28;20052;-74
2022/01/01 17:02:00;;;;;;;2.80;2.58;;;;;;;12.87;96.33;101913.00;10545447;28;20055;-75
2022/01/01 17:07:04;;;;;;;5.50;3.53;;;;;;;12.83;97.51;101931.59;10529471;28;20089;-75
2022/01/01 17:12:05;;;;;;;5.55;3.25;;;;;;;12.77;97.19;101933.16;10528168;28;20032;-74
2022/01/01 17:17:20;;;;;;;3.30;3.10;;;;;;;12.73;96.54;101918.28;10545875;28;20043;-75
2022/01/01 17:22:38;;;;;;;3.72;2.60;;;;;;;12.71;96.78;101909.44;10512734;28;20067;-74
2022/01/01 17:27:46;;;;;;;3.10;2.80;;;;;;;12.66;96.64;101879.25;10544469;28;20028;-74
2022/01/01 17:33:03;;;;;;;6.22;3.22;;;;;;;12.64;96.43;101885.94;10527154;28;20511;-74
2022/01/01 17:43:24;;;;;;;3.17;2.88;;;;;;;12.62;95.75;101890.69;10530398;28;20032;-74
2022/01/01 17:48:29;;;;;;;4.20;3.58;;;;;;;12.66;97.44;101895.56;10545333;28;20055;-74
2022/01/01 17:53:43;;;;;;;4.47;2.85;;;;;;;12.58;96.04;101882.09;10544583;28;20032;-74
2022/01/01 17:58:45;;;;;;;5.45;2.70;;;;;;;12.58;95.69;101882.09;10526915;28;20056;-75
2022/01/01 18:03:46;;;;;;;3.47;2.42;;;;;;;12.57;97.08;101880.38;10544278;28;20472;-74
2022/01/01 18:08:56;;;;;;;5.03;4.38;;;;;;;12.54;97.66;101897.09;10544663;28;20032;-75
2022/01/01 18:14:02;;;;;;;8.05;3.53;;;;;;;12.50;97.04;101895.75;10543949;28;20032;-74
2022/01/01 18:19:02;;;;;;;3.85;3.45;;;;;;;12.48;96.54;101884.25;10543447;28;20032;-74
2022/01/01 18:24:09;;;;;;;7.65;3.20;;;;;;;12.47;96.89;101882.53;10544373;28;20032;-75
2022/01/01 18:29:09;;;;;;;3.75;3.30;;;;;;;12.50;96.93;101880.28;10529157;28;20028;-75
2022/01/01 18:34:10;;;;;;;4.57;3.40;;;;;;;12.51;98.50;101867.56;10527096;28;20040;-74
2022/01/01 18:39:10;;;;;;;3.83;3.42;;;;;;;12.47;98.12;101885.25;10508661;28;20035;-75
2022/01/01 18:44:10;;;;;;;8.45;3.17;;;;;;;12.44;98.91;101899.19;10508014;28;20052;-75
2022/01/01 18:49:11;;;;;;;3.88;3.50;;;;;;;12.39;98.25;101907.09;10542993;28;20024;-75
2022/01/01 18:54:16;;;;;;;6.25;3.67;;;;;;;12.32;97.53;101896.94;10507791;28;20111;-75
2022/01/01 18:59:41;;;;;;;3.90;3.50;;;;;;;12.27;98.92;101879.50;10528388;28;20048;-74
2022/01/01 19:04:52;;;;;;;8.60;4.90;;;;;;;12.21;98.90;101881.09;10524770;28;20447;-75
2022/01/01 19:09:59;;;;;;;4.00;3.60;;;;;;;12.28;100.00;101873.03;10524222;28;20031;-74
2022/01/01 19:15:00;;;;;;;12.20;4.50;;;;;;;12.25;97.58;101903.28;10541895;28;20039;-75
2022/01/01 19:20:00;;;;;;;7.15;4.00;;;;;;;12.31;99.16;101914.25;10541544;28;20043;-75
2022/01/01 19:25:01;;;;;;;5.13;3.75;;;;;;;12.29;98.67;101904.63;10506951;28;20028;-74
2022/01/01 19:30:02;;;;;;;3.78;3.38;;;;;;;12.28;96.90;101914.66;10523910;28;20024;-74
2022/01/01 19:35:03;;;;;;;8.60;5.05;;;;;;;12.33;98.78;101901.34;10540806;28;20093;-74
2022/01/01 19:40:03;;;;;;;4.25;3.85;;;;;;;12.30;95.91;101906.31;10490554;28;20028;-75
2022/01/01 19:45:05;;;;;;;7.22;5.35;;;;;;;12.32;97.50;101883.38;10540034;28;20031;-75
2022/01/01 19:50:12;;;;;;;7.15;4.05;;;;;;;12.38;96.22;101860.06;10539733;28;20063;-75
2022/01/01 19:55:14;;;;;;;5.90;4.97;;;;;;;12.31;96.16;101862.66;10541605;28;20032;-74
2022/01/01 20:00:16;;;;;;;8.35;4.50;;;;;;;12.40;96.88;101857.16;10483932;28;20095;-75
2022/01/01 20:05:17;;;;;;;6.65;4.18;;;;;;;12.44;93.95;101856.56;10465507;28;20040;-74
2022/01/01 20:10:19;;;;;;;12.65;5.25;;;;;;;12.45;94.85;101858.28;10480794;28;20033;-75
2022/01/01 20:15:24;;;;;;;7.80;4.32;;;;;;;12.46;95.25;101865.41;10480457;28;20021;-75
2022/01/01 20:20:25;;;;;;;9.43;5.38;;;;;;;12.43;94.21;101862.22;10498631;28;20029;-75
2022/01/01 20:25:25;;;;;;;6.15;4.30;;;;;;;12.48;95.49;101882.38;10498071;28;20037;-75
2022/01/01 20:30:26;;;;;;;9.45;5.78;;;;;;;12.48;95.25;101843.50;10498167;28;20464;-74
2022/01/01 20:35:26;;;;;;;9.10;5.75;;;;;;;12.42;93.86;101808.91;10497250;28;20115;-74
2022/01/01 20:40:28;;;;;;;5.63;5.07;;;;;;;12.40;95.77;101809.09;10501611;28;20033;-75
2022/01/01 20:45:29;;;;;;;7.45;4.60;;;;;;;12.30;95.27;101800.38;10487600;28;20032;-74
2022/01/01 20:50:29;;;;;;;7.78;5.38;;;;;;;12.27;94.81;101806.19;10503020;28;20028;-74
2022/01/01 20:55:30;;;;;;;12.48;5.10;;;;;;;12.24;95.48;101812.84;10480976;28;20480;-74
2022/01/01 21:00:31;;;;;;;8.65;5.82;;;;;;;12.25;96.30;101806.38;10501742;28;20106;-74
2022/01/01 21:05:31;;;;;;;7.85;4.50;;;;;;;12.23;94.94;101802.16;10504703;28;20060;-75
2022/01/01 21:10:35;;;;;;;6.88;4.45;;;;;;;12.24;96.84;101804.69;10506399;28;20064;-75
2022/01/01 21:15:35;;;;;;;6.05;5.15;;;;;;;12.25;96.27;101817.25;10486961;28;20039;-75
2022/01/01 21:20:36;;;;;;;8.20;5.85;;;;;;;12.19;94.02;101789.97;10504303;28;20035;-74
2022/01/01 21:25:37;;;;;;;9.77;5.68;;;;;;;12.25;95.92;101819.09;10486662;28;20036;-74
2022/01/01 21:30:38;;;;;;;7.57;6.25;;;;;;;12.31;95.91;101785.75;10504833;28;20031;-74
2022/01/01 21:35:38;;;;;;;7.30;4.97;;;;;;;12.32;95.09;101790.19;10505396;28;20419;-75
2022/01/01 21:40:39;;;;;;;6.07;4.72;;;;;;;12.19;93.74;101779.97;10504223;28;20067;-74
2022/01/01 21:45:40;;;;;;;5.07;4.57;;;;;;;12.15;95.92;101780.53;10504393;28;20380;-75
2022/01/01 21:50:41;;;;;;;9.55;6.18;;;;;;;12.09;96.75;101782.97;10485833;28;20041;-75
2022/01/01 21:55:45;;;;;;;8.45;5.50;;;;;;;12.00;95.15;101803.09;10485039;28;20494;-75
2022/01/01 22:00:47;;;;;;;7.50;6.28;;;;;;;11.81;94.85;101782.69;10546593;28;20032;-75
2022/01/01 22:05:49;;;;;;;3.85;3.45;;;;;;;11.69;95.66;101775.19;10546612;28;20044;-77
2022/01/01 22:10:49;;;;;;;12.63;5.68;;;;;;;11.61;97.51;101778.81;10527071;28;20046;-76
2022/01/01 22:15:49;;;;;;;9.93;7.10;;;;;;;11.56;97.33;101783.94;10546410;28;20032;-76
2022/01/01 22:20:50;;;;;;;17.13;6.95;;;;;;;11.56;97.17;101754.09;10545332;28;20075;-76
2022/01/01 22:25:50;;;;;;;9.65;5.78;;;;;;;11.49;97.68;101747.75;10544178;28;20056;-75
2022/01/01 22:30:50;;;;;;;6.93;5.68;;;;;;;11.54;98.50;101750.72;10545127;28;20122;-78
2022/01/01 22:35:51;;;;;;;10.40;6.35;;;;;;;11.63;98.44;101764.03;10544811;28;20039;-77
2022/01/01 22:40:51;;;;;;;10.05;6.22;;;;;;;11.66;97.84;101762.81;10525525;28;20028;-77
2022/01/01 22:45:52;;;;;;;12.35;5.85;;;;;;;11.65;98.36;101763.88;10543767;28;20074;-77
2022/01/01 22:50:52;;;;;;;11.73;6.60;;;;;;;11.71;98.97;101773.13;10543897;28;20028;-75
2022/01/01 22:55:53;;;;;;;7.40;5.03;;;;;;;11.68;97.48;101771.63;10508510;28;20482;-77
2022/01/01 23:00:54;;;;;;;14.65;6.13;;;;;;;11.72;99.00;101763.97;10544813;28;20040;-76